CSN375 ZSPD-EDDF
Flight info
| Callsign | CSN375 |
|---|---|
| Flight time | N/A |
| Altitude | 32100 |
| Route | PIK81D PIKAS G330 PIMOL A593 DALIM W157 VYK G212 SOTMU B339 POLHO Y345 UDA R372 AMUTA/K0909F340 R372 ADONI B800 KUMOD N869 UNISO/K0896F360 L870 RANVA/N0483F360 L870 RESMO DCT TODNA DCT DEREX P739 KOLJA N746 GORPI/N0479F380 Z80 TILAV L87 KETAP DCT PENEK DCT POVEL DCT RIMET T157 KERAX KERAX4B |
| Aircraft | B77W/H-SDE2E3FGHIJ1J2J4J5LM1OP2RVWXYZ/LB1D1 |
Departure
| Time | N/A |
|---|---|
| Airport | Shanghai Pudong International Airport (ZSPD) |
Arrival
| Time | 2026-05-05 06:20 |
|---|---|
| Airport | Frankfurt Main Airport (EDDF) |
| Time | Latitude | Longitude | Altitude | Speed | Heading |
|---|---|---|---|---|---|
| 2026-05-05 04:11 | 59.27861 | 27.18683 | 35741 ft | 447 kts | 250° |
| 2026-05-05 04:11 | 59.26745 | 27.13019 | 35743 ft | 447 kts | 250° |
| 2026-05-05 04:12 | 59.24504 | 27.01706 | 35750 ft | 446 kts | 250° |
| 2026-05-05 04:12 | 59.22254 | 26.90412 | 35747 ft | 446 kts | 250° |
| 2026-05-05 04:13 | 59.19993 | 26.79134 | 35751 ft | 446 kts | 250° |
| 2026-05-05 04:13 | 59.17740 | 26.67954 | 35751 ft | 446 kts | 250° |
| 2026-05-05 04:14 | 59.15464 | 26.56725 | 35754 ft | 446 kts | 250° |
| 2026-05-05 04:14 | 59.13178 | 26.45508 | 35753 ft | 446 kts | 250° |
| 2026-05-05 04:15 | 59.10880 | 26.34296 | 35758 ft | 446 kts | 249° |
| 2026-05-05 04:15 | 59.08571 | 26.23093 | 35755 ft | 446 kts | 249° |
| 2026-05-05 04:16 | 59.06270 | 26.11988 | 35760 ft | 446 kts | 249° |
| 2026-05-05 04:16 | 59.03943 | 26.00821 | 35761 ft | 446 kts | 249° |
| 2026-05-05 04:17 | 59.01603 | 25.89652 | 35758 ft | 446 kts | 249° |
| 2026-05-05 04:17 | 58.99269 | 25.78571 | 35760 ft | 446 kts | 249° |
| 2026-05-05 04:18 | 58.96913 | 25.67446 | 35763 ft | 446 kts | 249° |
| 2026-05-05 04:18 | 58.94546 | 25.56333 | 35761 ft | 446 kts | 249° |
| 2026-05-05 04:19 | 58.92167 | 25.45222 | 35764 ft | 446 kts | 249° |
| 2026-05-05 04:19 | 58.89781 | 25.34137 | 35761 ft | 446 kts | 249° |
| 2026-05-05 04:20 | 58.87403 | 25.23143 | 35766 ft | 447 kts | 249° |
| 2026-05-05 04:20 | 58.84994 | 25.12070 | 35763 ft | 447 kts | 248° |
| 2026-05-05 04:21 | 58.82576 | 25.01017 | 35769 ft | 447 kts | 248° |
| 2026-05-05 04:21 | 58.80166 | 24.90053 | 35767 ft | 447 kts | 248° |
| 2026-05-05 04:22 | 58.77727 | 24.79019 | 35771 ft | 447 kts | 248° |
| 2026-05-05 04:22 | 58.75280 | 24.68005 | 35773 ft | 447 kts | 248° |
| 2026-05-05 04:23 | 58.72820 | 24.56991 | 35772 ft | 448 kts | 248° |
| 2026-05-05 04:23 | 58.70351 | 24.45995 | 35784 ft | 447 kts | 248° |
| 2026-05-05 04:24 | 58.67892 | 24.35098 | 35792 ft | 448 kts | 248° |
| 2026-05-05 04:25 | 58.64157 | 24.18654 | 35788 ft | 447 kts | 248° |
| 2026-05-05 04:25 | 58.61657 | 24.07718 | 35782 ft | 447 kts | 248° |
| 2026-05-05 04:26 | 58.59166 | 23.96880 | 35783 ft | 447 kts | 247° |
| 2026-05-05 04:26 | 58.56647 | 23.85974 | 35773 ft | 447 kts | 247° |
| 2026-05-05 04:27 | 58.54119 | 23.75081 | 35777 ft | 447 kts | 247° |
| 2026-05-05 04:27 | 58.51585 | 23.64221 | 35774 ft | 447 kts | 247° |
| 2026-05-05 04:28 | 58.49056 | 23.53438 | 35778 ft | 447 kts | 247° |
| 2026-05-05 04:28 | 58.46502 | 23.42600 | 35772 ft | 447 kts | 247° |
| 2026-05-05 04:29 | 58.43942 | 23.31794 | 35769 ft | 447 kts | 247° |
| 2026-05-05 04:29 | 58.41373 | 23.21002 | 35769 ft | 447 kts | 247° |
| 2026-05-05 04:30 | 58.38796 | 23.10227 | 35775 ft | 447 kts | 246° |
| 2026-05-05 04:30 | 58.36224 | 22.99533 | 35784 ft | 447 kts | 246° |
| 2026-05-05 04:31 | 58.33628 | 22.88788 | 35791 ft | 447 kts | 246° |
| 2026-05-05 04:31 | 58.31023 | 22.78057 | 35790 ft | 447 kts | 246° |
| 2026-05-05 04:32 | 58.28408 | 22.67342 | 35800 ft | 447 kts | 246° |
| 2026-05-05 04:32 | 58.25802 | 22.56713 | 35796 ft | 447 kts | 246° |
| 2026-05-05 04:33 | 58.23170 | 22.46031 | 35804 ft | 447 kts | 246° |
| 2026-05-05 04:33 | 58.20528 | 22.35359 | 35797 ft | 447 kts | 246° |
| 2026-05-05 04:34 | 58.17880 | 22.24716 | 35798 ft | 446 kts | 246° |
| 2026-05-05 04:34 | 58.15241 | 22.14158 | 35793 ft | 446 kts | 245° |
| 2026-05-05 04:35 | 58.12575 | 22.03542 | 35793 ft | 446 kts | 245° |
| 2026-05-05 04:35 | 58.09902 | 21.92953 | 35790 ft | 446 kts | 245° |
| 2026-05-05 04:36 | 58.07219 | 21.82372 | 35798 ft | 446 kts | 245° |
| 2026-05-05 04:36 | 58.04548 | 21.71883 | 35791 ft | 446 kts | 245° |
| 2026-05-05 04:37 | 58.01848 | 21.61326 | 35795 ft | 446 kts | 245° |
| 2026-05-05 04:37 | 57.99167 | 21.50771 | 35798 ft | 446 kts | 246° |
| 2026-05-05 04:38 | 57.96616 | 21.40112 | 35790 ft | 446 kts | 246° |
| 2026-05-05 04:38 | 57.94095 | 21.29512 | 35788 ft | 446 kts | 246° |
| 2026-05-05 04:39 | 57.91536 | 21.18876 | 35805 ft | 446 kts | 246° |
| 2026-05-05 04:39 | 57.88957 | 21.08258 | 35804 ft | 446 kts | 246° |
| 2026-05-05 04:40 | 57.86385 | 20.97730 | 35808 ft | 446 kts | 246° |
| 2026-05-05 04:40 | 57.83824 | 20.87295 | 35806 ft | 446 kts | 246° |
| 2026-05-05 04:41 | 57.81219 | 20.76731 | 35808 ft | 446 kts | 245° |
| 2026-05-05 04:41 | 57.78605 | 20.66180 | 35807 ft | 446 kts | 245° |
| 2026-05-05 04:42 | 57.75983 | 20.55642 | 35814 ft | 446 kts | 245° |
| 2026-05-05 04:42 | 57.73368 | 20.45186 | 35812 ft | 446 kts | 245° |
| 2026-05-05 04:43 | 57.70733 | 20.34690 | 35815 ft | 446 kts | 245° |
| 2026-05-05 04:43 | 57.67975 | 20.24299 | 35814 ft | 446 kts | 240° |
| 2026-05-05 04:44 | 57.64447 | 20.14755 | 35822 ft | 448 kts | 232° |
| 2026-05-05 04:44 | 57.60399 | 20.05998 | 35819 ft | 449 kts | 231° |
| 2026-05-05 04:45 | 57.56306 | 19.97223 | 35826 ft | 449 kts | 231° |
| 2026-05-05 04:45 | 57.52219 | 19.88443 | 35830 ft | 449 kts | 231° |
| 2026-05-05 04:46 | 57.48132 | 19.79665 | 35836 ft | 449 kts | 231° |
| 2026-05-05 04:46 | 57.44065 | 19.70951 | 35834 ft | 449 kts | 231° |
| 2026-05-05 04:47 | 57.39968 | 19.62207 | 35843 ft | 449 kts | 231° |
| 2026-05-05 04:47 | 57.35863 | 19.53478 | 35835 ft | 449 kts | 231° |
| 2026-05-05 04:48 | 57.31755 | 19.44776 | 35844 ft | 449 kts | 231° |
| 2026-05-05 04:48 | 57.27636 | 19.36083 | 35846 ft | 449 kts | 231° |
| 2026-05-05 04:49 | 57.23545 | 19.27481 | 35849 ft | 449 kts | 230° |
| 2026-05-05 04:49 | 57.19419 | 19.18838 | 35846 ft | 449 kts | 230° |
| 2026-05-05 04:50 | 57.15285 | 19.10208 | 35855 ft | 449 kts | 230° |
| 2026-05-05 04:50 | 57.11147 | 19.01603 | 35853 ft | 449 kts | 230° |
| 2026-05-05 04:51 | 57.07032 | 18.93076 | 35859 ft | 449 kts | 230° |
| 2026-05-05 04:51 | 57.02880 | 18.84505 | 35859 ft | 449 kts | 230° |
| 2026-05-05 04:52 | 56.98726 | 18.75960 | 35867 ft | 449 kts | 230° |
| 2026-05-05 04:52 | 56.94569 | 18.67438 | 35868 ft | 449 kts | 230° |
| 2026-05-05 04:53 | 56.90434 | 18.58995 | 35868 ft | 448 kts | 230° |
| 2026-05-05 04:53 | 56.86266 | 18.50513 | 35866 ft | 448 kts | 230° |
| 2026-05-05 04:54 | 56.82128 | 18.42123 | 35874 ft | 448 kts | 230° |
| 2026-05-05 04:54 | 56.77980 | 18.33742 | 35872 ft | 448 kts | 229° |
| 2026-05-05 04:55 | 56.73798 | 18.25323 | 35884 ft | 448 kts | 229° |
| 2026-05-05 04:55 | 56.69609 | 18.16921 | 35876 ft | 448 kts | 229° |
| 2026-05-05 04:56 | 56.65414 | 18.08535 | 35885 ft | 448 kts | 229° |
| 2026-05-05 04:56 | 56.61246 | 18.00234 | 35882 ft | 448 kts | 229° |
| 2026-05-05 04:57 | 56.57043 | 17.91893 | 35888 ft | 448 kts | 229° |
| 2026-05-05 04:57 | 56.52840 | 17.83579 | 35885 ft | 447 kts | 229° |
| 2026-05-05 04:58 | 56.48627 | 17.75278 | 35893 ft | 447 kts | 229° |
| 2026-05-05 04:58 | 56.44445 | 17.67064 | 35889 ft | 447 kts | 229° |
| 2026-05-05 04:59 | 56.40228 | 17.58812 | 35893 ft | 447 kts | 229° |
| 2026-05-05 04:59 | 56.36012 | 17.50590 | 35893 ft | 447 kts | 229° |
| 2026-05-05 05:00 | 56.31787 | 17.42380 | 35898 ft | 446 kts | 228° |
| 2026-05-05 05:00 | 56.27590 | 17.34251 | 35906 ft | 446 kts | 228° |
| 2026-05-05 05:01 | 56.23359 | 17.26087 | 35909 ft | 446 kts | 228° |
| 2026-05-05 05:01 | 56.19124 | 17.17942 | 35904 ft | 446 kts | 228° |
| 2026-05-05 05:02 | 56.14888 | 17.09821 | 35893 ft | 446 kts | 228° |
| 2026-05-05 05:02 | 56.10670 | 17.01764 | 35896 ft | 446 kts | 228° |
| 2026-05-05 05:03 | 56.06424 | 16.93678 | 35919 ft | 447 kts | 228° |
| 2026-05-05 05:03 | 56.04292 | 16.89628 | 36066 ft | 448 kts | 227° |
| 2026-05-05 05:03 | 56.02135 | 16.85611 | 36301 ft | 448 kts | 225° |
| 2026-05-05 05:03 | 55.99797 | 16.81912 | 36475 ft | 449 kts | 221° |
| 2026-05-05 05:04 | 55.97310 | 16.78521 | 36666 ft | 451 kts | 217° |
| 2026-05-05 05:04 | 55.94663 | 16.75497 | 36809 ft | 453 kts | 214° |
| 2026-05-05 05:04 | 55.91975 | 16.72564 | 36976 ft | 454 kts | 214° |
| 2026-05-05 05:04 | 55.89278 | 16.69635 | 37141 ft | 454 kts | 214° |
| 2026-05-05 05:05 | 55.86614 | 16.66740 | 37321 ft | 454 kts | 214° |
| 2026-05-05 05:05 | 55.83924 | 16.63812 | 37551 ft | 453 kts | 214° |
| 2026-05-05 05:05 | 55.81238 | 16.60883 | 37835 ft | 452 kts | 214° |
| 2026-05-05 05:06 | 55.75893 | 16.55051 | 37908 ft | 449 kts | 214° |
| 2026-05-05 05:06 | 55.70609 | 16.49298 | 37914 ft | 443 kts | 214° |
| 2026-05-05 05:07 | 55.65391 | 16.43632 | 37919 ft | 442 kts | 214° |
| 2026-05-05 05:07 | 55.60140 | 16.37948 | 37928 ft | 443 kts | 214° |
| 2026-05-05 05:08 | 55.54874 | 16.32268 | 37925 ft | 444 kts | 214° |
| 2026-05-05 05:08 | 55.49596 | 16.26593 | 37926 ft | 445 kts | 213° |
| 2026-05-05 05:09 | 55.44335 | 16.20955 | 37934 ft | 446 kts | 213° |
| 2026-05-05 05:09 | 55.39019 | 16.15276 | 37931 ft | 448 kts | 213° |
| 2026-05-05 05:10 | 55.33686 | 16.09597 | 37925 ft | 449 kts | 213° |
| 2026-05-05 05:10 | 55.28342 | 16.03924 | 37932 ft | 449 kts | 213° |
| 2026-05-05 05:11 | 55.23026 | 15.98299 | 37927 ft | 450 kts | 213° |
| 2026-05-05 05:11 | 55.17668 | 15.92648 | 37927 ft | 450 kts | 213° |
| 2026-05-05 05:12 | 55.12308 | 15.87011 | 37924 ft | 450 kts | 213° |
| 2026-05-05 05:12 | 55.06942 | 15.81386 | 37928 ft | 450 kts | 213° |
| 2026-05-05 05:13 | 55.01613 | 15.75817 | 37930 ft | 450 kts | 213° |
| 2026-05-05 05:13 | 54.96247 | 15.70225 | 37938 ft | 450 kts | 213° |
| 2026-05-05 05:14 | 54.90924 | 15.64528 | 37938 ft | 448 kts | 217° |
| 2026-05-05 05:14 | 54.85967 | 15.57983 | 37938 ft | 448 kts | 219° |
| 2026-05-05 05:15 | 54.81022 | 15.51394 | 37932 ft | 448 kts | 219° |
| 2026-05-05 05:15 | 54.76102 | 15.44895 | 37937 ft | 448 kts | 219° |
| 2026-05-05 05:16 | 54.71133 | 15.38368 | 37931 ft | 448 kts | 219° |
| 2026-05-05 05:16 | 54.66156 | 15.31856 | 37934 ft | 449 kts | 219° |
| 2026-05-05 05:17 | 54.61173 | 15.25353 | 37934 ft | 449 kts | 219° |
| 2026-05-05 05:17 | 54.56227 | 15.18918 | 37939 ft | 449 kts | 219° |
| 2026-05-05 05:18 | 54.51237 | 15.12446 | 37939 ft | 449 kts | 219° |
| 2026-05-05 05:18 | 54.46244 | 15.05987 | 37943 ft | 449 kts | 219° |
| 2026-05-05 05:19 | 54.41136 | 14.99928 | 37939 ft | 451 kts | 212° |
| 2026-05-05 05:19 | 54.35467 | 14.95254 | 37961 ft | 453 kts | 206° |
| 2026-05-05 05:20 | 54.29677 | 14.90936 | 37939 ft | 454 kts | 206° |
| 2026-05-05 05:20 | 54.23897 | 14.86561 | 37937 ft | 454 kts | 206° |
| 2026-05-05 05:21 | 54.19082 | 14.82943 | 37937 ft | 455 kts | 206° |
| 2026-05-05 05:21 | 54.12342 | 14.77899 | 37937 ft | 456 kts | 206° |
| 2026-05-05 05:22 | 54.06531 | 14.73561 | 37929 ft | 456 kts | 206° |
| 2026-05-05 05:22 | 54.01696 | 14.69961 | 37945 ft | 457 kts | 206° |
| 2026-05-05 05:23 | 53.95875 | 14.65637 | 37944 ft | 457 kts | 206° |
| 2026-05-05 05:23 | 53.89093 | 14.60618 | 37944 ft | 458 kts | 206° |
| 2026-05-05 05:24 | 53.84233 | 14.57031 | 37935 ft | 458 kts | 206° |
| 2026-05-05 05:24 | 53.78388 | 14.52730 | 37940 ft | 458 kts | 206° |
| 2026-05-05 05:25 | 53.72537 | 14.48438 | 37935 ft | 458 kts | 206° |
| 2026-05-05 05:25 | 53.65734 | 14.43463 | 37940 ft | 459 kts | 206° |
| 2026-05-05 05:26 | 53.60865 | 14.39912 | 37937 ft | 459 kts | 206° |
| 2026-05-05 05:26 | 53.55000 | 14.35647 | 37937 ft | 459 kts | 206° |
| 2026-05-05 05:27 | 53.49369 | 14.30694 | 37939 ft | 456 kts | 214° |
| 2026-05-05 05:27 | 53.41755 | 14.21174 | 37937 ft | 455 kts | 219° |
| 2026-05-05 05:28 | 53.36741 | 14.14780 | 37930 ft | 456 kts | 219° |
| 2026-05-05 05:28 | 53.31673 | 14.08380 | 37939 ft | 457 kts | 219° |
| 2026-05-05 05:29 | 53.26583 | 14.01980 | 37929 ft | 458 kts | 219° |
| 2026-05-05 05:29 | 53.21495 | 13.95598 | 37922 ft | 457 kts | 219° |
| 2026-05-05 05:30 | 53.16369 | 13.89440 | 37921 ft | 458 kts | 214° |
| 2026-05-05 05:30 | 53.10932 | 13.83920 | 37930 ft | 458 kts | 213° |
| 2026-05-05 05:31 | 53.05498 | 13.78414 | 37924 ft | 457 kts | 213° |
| 2026-05-05 05:31 | 53.00075 | 13.72888 | 37918 ft | 457 kts | 214° |
| 2026-05-05 05:32 | 52.94778 | 13.67212 | 37980 ft | 455 kts | 220° |
| 2026-05-05 05:32 | 52.90046 | 13.60249 | 37919 ft | 455 kts | 228° |
| 2026-05-05 05:33 | 52.85889 | 13.52352 | 37919 ft | 455 kts | 231° |
| 2026-05-05 05:33 | 52.81837 | 13.44471 | 37916 ft | 456 kts | 231° |
| 2026-05-05 05:34 | 52.77703 | 13.36507 | 37914 ft | 456 kts | 230° |
| 2026-05-05 05:34 | 52.73579 | 13.28630 | 37918 ft | 457 kts | 230° |
| 2026-05-05 05:35 | 52.69419 | 13.20717 | 37909 ft | 457 kts | 230° |
| 2026-05-05 05:35 | 52.65258 | 13.12828 | 37902 ft | 456 kts | 230° |
| 2026-05-05 05:36 | 52.61090 | 13.04948 | 37897 ft | 456 kts | 230° |
| 2026-05-05 05:36 | 52.56954 | 12.97152 | 37904 ft | 455 kts | 230° |
| 2026-05-05 05:37 | 52.52787 | 12.89322 | 37892 ft | 455 kts | 230° |
| 2026-05-05 05:37 | 52.48620 | 12.81516 | 37894 ft | 454 kts | 230° |
| 2026-05-05 05:38 | 52.44455 | 12.73736 | 37890 ft | 454 kts | 230° |
| 2026-05-05 05:38 | 52.40762 | 12.65498 | 37893 ft | 452 kts | 242° |
| 2026-05-05 05:39 | 52.38307 | 12.56046 | 37893 ft | 452 kts | 254° |
| 2026-05-05 05:39 | 52.36873 | 12.46029 | 37892 ft | 453 kts | 256° |
| 2026-05-05 05:40 | 52.35522 | 12.35971 | 37900 ft | 453 kts | 256° |
| 2026-05-05 05:40 | 52.34140 | 12.25984 | 37908 ft | 454 kts | 256° |
| 2026-05-05 05:41 | 52.32711 | 12.15932 | 37901 ft | 454 kts | 256° |
| 2026-05-05 05:41 | 52.31266 | 12.05890 | 37911 ft | 454 kts | 255° |
| 2026-05-05 05:42 | 52.29813 | 11.95858 | 37901 ft | 454 kts | 255° |
| 2026-05-05 05:42 | 52.28350 | 11.85818 | 37905 ft | 454 kts | 255° |
| 2026-05-05 05:43 | 52.26890 | 11.75858 | 37905 ft | 454 kts | 255° |
| 2026-05-05 05:43 | 52.25410 | 11.65828 | 37907 ft | 454 kts | 255° |
| 2026-05-05 05:44 | 52.23924 | 11.55816 | 37904 ft | 454 kts | 255° |
| 2026-05-05 05:44 | 52.22429 | 11.45804 | 37904 ft | 454 kts | 255° |
| 2026-05-05 05:45 | 52.20935 | 11.35871 | 37895 ft | 454 kts | 255° |
| 2026-05-05 05:45 | 52.19422 | 11.25869 | 37897 ft | 454 kts | 255° |
| 2026-05-05 05:46 | 52.17901 | 11.15877 | 37906 ft | 454 kts | 255° |
| 2026-05-05 05:46 | 52.16372 | 11.05892 | 37906 ft | 455 kts | 255° |
| 2026-05-05 05:47 | 52.14843 | 10.95957 | 37904 ft | 455 kts | 254° |
| 2026-05-05 05:47 | 52.12740 | 10.86358 | 37910 ft | 452 kts | 236° |
| 2026-05-05 05:48 | 52.10745 | 10.82400 | 37903 ft | 453 kts | 225° |
| 2026-05-05 05:48 | 52.08314 | 10.79135 | 37894 ft | 456 kts | 213° |
| 2026-05-05 05:48 | 52.02615 | 10.74637 | 37903 ft | 457 kts | 207° |
| 2026-05-05 05:49 | 51.96869 | 10.70344 | 37908 ft | 458 kts | 207° |
| 2026-05-05 05:49 | 51.91092 | 10.65939 | 37904 ft | 459 kts | 207° |
| 2026-05-05 05:50 | 51.85316 | 10.61482 | 37903 ft | 460 kts | 208° |
| 2026-05-05 05:50 | 51.79529 | 10.57016 | 37901 ft | 461 kts | 207° |
| 2026-05-05 05:51 | 51.73781 | 10.52594 | 37905 ft | 461 kts | 207° |
| 2026-05-05 05:51 | 51.67981 | 10.48148 | 37897 ft | 461 kts | 207° |
| 2026-05-05 05:52 | 51.62189 | 10.43722 | 37905 ft | 461 kts | 207° |
| 2026-05-05 05:52 | 51.56395 | 10.39306 | 37901 ft | 460 kts | 207° |
| 2026-05-05 05:53 | 51.50616 | 10.34914 | 37899 ft | 459 kts | 207° |
| 2026-05-05 05:53 | 51.44879 | 10.30564 | 37918 ft | 459 kts | 207° |
| 2026-05-05 05:54 | 51.39106 | 10.26200 | 37915 ft | 459 kts | 207° |
| 2026-05-05 05:54 | 51.33045 | 10.22910 | 37912 ft | 463 kts | 195° |
| 2026-05-05 05:55 | 51.26667 | 10.21644 | 37903 ft | 468 kts | 184° |
| 2026-05-05 05:55 | 51.20144 | 10.21664 | 37900 ft | 469 kts | 184° |
| 2026-05-05 05:56 | 51.13617 | 10.21600 | 37907 ft | 469 kts | 184° |
| 2026-05-05 05:56 | 51.07084 | 10.21467 | 37905 ft | 469 kts | 184° |
| 2026-05-05 05:57 | 51.00683 | 10.21342 | 37827 ft | 460 kts | 185° |
| 2026-05-05 05:57 | 50.97519 | 10.21282 | 37042 ft | 458 kts | 185° |
| 2026-05-05 05:57 | 50.94381 | 10.21225 | 36403 ft | 444 kts | 185° |
| 2026-05-05 05:58 | 50.91328 | 10.21169 | 35711 ft | 433 kts | 186° |
| 2026-05-05 05:58 | 50.88348 | 10.21114 | 34974 ft | 425 kts | 186° |
| 2026-05-05 05:58 | 50.85420 | 10.21032 | 34275 ft | 417 kts | 189° |
| 2026-05-05 05:58 | 50.82601 | 10.20101 | 33487 ft | 415 kts | 207° |
| 2026-05-05 05:59 | 50.80081 | 10.17822 | 32669 ft | 425 kts | 220° |
| 2026-05-05 05:59 | 50.77866 | 10.14631 | 31740 ft | 436 kts | 231° |
| 2026-05-05 05:59 | 50.76210 | 10.10647 | 30791 ft | 435 kts | 243° |
| 2026-05-05 05:59 | 50.74888 | 10.06354 | 30046 ft | 433 kts | 245° |
| 2026-05-05 06:00 | 50.73626 | 10.02133 | 29290 ft | 430 kts | 245° |
| 2026-05-05 06:00 | 50.72340 | 9.97893 | 28576 ft | 425 kts | 244° |
| 2026-05-05 06:00 | 50.71044 | 9.93718 | 27899 ft | 421 kts | 244° |
| 2026-05-05 06:00 | 50.69743 | 9.89611 | 27245 ft | 417 kts | 243° |
| 2026-05-05 06:01 | 50.68440 | 9.85540 | 26614 ft | 414 kts | 243° |
| 2026-05-05 06:01 | 50.67144 | 9.81503 | 25988 ft | 411 kts | 243° |
| 2026-05-05 06:01 | 50.65856 | 9.77501 | 25368 ft | 409 kts | 243° |
| 2026-05-05 06:01 | 50.64570 | 9.73523 | 24750 ft | 404 kts | 242° |
| 2026-05-05 06:02 | 50.62965 | 9.69904 | 24128 ft | 403 kts | 227° |
| 2026-05-05 06:02 | 50.60874 | 9.66978 | 23542 ft | 404 kts | 218° |
| 2026-05-05 06:02 | 50.58501 | 9.64732 | 22848 ft | 405 kts | 205° |
| 2026-05-05 06:02 | 50.55870 | 9.63155 | 22201 ft | 403 kts | 202° |
| 2026-05-05 06:03 | 50.53244 | 9.61653 | 21570 ft | 400 kts | 202° |
| 2026-05-05 06:03 | 50.50644 | 9.60116 | 20972 ft | 398 kts | 202° |
| 2026-05-05 06:03 | 50.48077 | 9.58563 | 20389 ft | 395 kts | 203° |
| 2026-05-05 06:03 | 50.45531 | 9.56968 | 19798 ft | 392 kts | 204° |
| 2026-05-05 06:04 | 50.43015 | 9.55329 | 19218 ft | 390 kts | 204° |
| 2026-05-05 06:04 | 50.40515 | 9.53700 | 18643 ft | 387 kts | 204° |
| 2026-05-05 06:04 | 50.37986 | 9.52556 | 18042 ft | 385 kts | 189° |
| 2026-05-05 06:04 | 50.35308 | 9.52628 | 17423 ft | 384 kts | 174° |
| 2026-05-05 06:05 | 50.32675 | 9.53280 | 16847 ft | 382 kts | 173° |
| 2026-05-05 06:05 | 50.30058 | 9.53944 | 16270 ft | 380 kts | 173° |
| 2026-05-05 06:05 | 50.27455 | 9.54588 | 15703 ft | 378 kts | 173° |
| 2026-05-05 06:05 | 50.24864 | 9.55212 | 15134 ft | 377 kts | 173° |
| 2026-05-05 06:06 | 50.22276 | 9.55820 | 14564 ft | 375 kts | 173° |
| 2026-05-05 06:06 | 50.19698 | 9.56418 | 14018 ft | 373 kts | 173° |
| 2026-05-05 06:06 | 50.17169 | 9.57000 | 13460 ft | 372 kts | 173° |
| 2026-05-05 06:06 | 50.14609 | 9.57589 | 12841 ft | 371 kts | 173° |
| 2026-05-05 06:07 | 50.12056 | 9.58174 | 12290 ft | 370 kts | 173° |
| 2026-05-05 06:07 | 50.09538 | 9.58530 | 11726 ft | 359 kts | 185° |
| 2026-05-05 06:07 | 50.07150 | 9.57603 | 11224 ft | 354 kts | 205° |
| 2026-05-05 06:07 | 50.05128 | 9.55477 | 10852 ft | 348 kts | 223° |
| 2026-05-05 06:08 | 50.03555 | 9.52705 | 10701 ft | 337 kts | 235° |
| 2026-05-05 06:08 | 50.02555 | 9.49503 | 10555 ft | 323 kts | 249° |
| 2026-05-05 06:08 | 50.01827 | 9.46266 | 10425 ft | 313 kts | 249° |
| 2026-05-05 06:08 | 50.01133 | 9.43113 | 10287 ft | 303 kts | 249° |
| 2026-05-05 06:09 | 50.00458 | 9.40064 | 10176 ft | 294 kts | 249° |
| 2026-05-05 06:09 | 49.99794 | 9.37103 | 10042 ft | 286 kts | 249° |
| 2026-05-05 06:09 | 49.99141 | 9.34230 | 9929 ft | 277 kts | 249° |
| 2026-05-05 06:09 | 49.98502 | 9.31442 | 9672 ft | 273 kts | 248° |
| 2026-05-05 06:10 | 49.97863 | 9.28666 | 9364 ft | 273 kts | 248° |
| 2026-05-05 06:10 | 49.97219 | 9.25884 | 9022 ft | 273 kts | 248° |
| 2026-05-05 06:10 | 49.96576 | 9.23116 | 8696 ft | 273 kts | 248° |
| 2026-05-05 06:10 | 49.95932 | 9.20346 | 8384 ft | 272 kts | 248° |
| 2026-05-05 06:11 | 49.95289 | 9.17581 | 8049 ft | 272 kts | 248° |
| 2026-05-05 06:11 | 49.94646 | 9.14817 | 7732 ft | 272 kts | 248° |
| 2026-05-05 06:11 | 49.94003 | 9.12062 | 7432 ft | 270 kts | 248° |
| 2026-05-05 06:11 | 49.93363 | 9.09331 | 7164 ft | 268 kts | 248° |
| 2026-05-05 06:12 | 49.92729 | 9.06626 | 6860 ft | 263 kts | 248° |
| 2026-05-05 06:12 | 49.92298 | 9.03923 | 6549 ft | 259 kts | 267° |
| 2026-05-05 06:12 | 49.92600 | 9.01167 | 6311 ft | 262 kts | 284° |
| 2026-05-05 06:12 | 49.93124 | 8.98490 | 5979 ft | 263 kts | 284° |
| 2026-05-05 06:13 | 49.93644 | 8.95779 | 5670 ft | 262 kts | 285° |
| 2026-05-05 06:13 | 49.94443 | 8.93282 | 5342 ft | 261 kts | 310° |
| 2026-05-05 06:13 | 49.95929 | 8.91694 | 5063 ft | 263 kts | 340° |
| 2026-05-05 06:13 | 49.97747 | 8.91305 | 4770 ft | 259 kts | 1° |
| 2026-05-05 06:14 | 49.99536 | 8.91428 | 4498 ft | 257 kts | 2° |
| 2026-05-05 06:14 | 50.01302 | 8.91540 | 4202 ft | 257 kts | 2° |
| 2026-05-05 06:14 | 50.03074 | 8.91647 | 4065 ft | 250 kts | 2° |
| 2026-05-05 06:14 | 50.04779 | 8.91748 | 4001 ft | 239 kts | 2° |
| 2026-05-05 06:15 | 50.06392 | 8.91845 | 3973 ft | 225 kts | 2° |
| 2026-05-05 06:15 | 50.07914 | 8.91929 | 3994 ft | 218 kts | 358° |
| 2026-05-05 06:15 | 50.09368 | 8.91324 | 4004 ft | 219 kts | 326° |
| 2026-05-05 06:15 | 50.10326 | 8.89603 | 3989 ft | 208 kts | 290° |
| 2026-05-05 06:16 | 50.10435 | 8.87474 | 4001 ft | 192 kts | 258° |
| 2026-05-05 06:16 | 50.10140 | 8.85436 | 3929 ft | 196 kts | 256° |
| 2026-05-05 06:16 | 50.09811 | 8.83359 | 3647 ft | 196 kts | 253° |
| 2026-05-05 06:16 | 50.09401 | 8.81364 | 3394 ft | 191 kts | 250° |
| 2026-05-05 06:17 | 50.08956 | 8.79445 | 3148 ft | 184 kts | 249° |
| 2026-05-05 06:17 | 50.08512 | 8.77571 | 2928 ft | 187 kts | 249° |
| 2026-05-05 06:17 | 50.08055 | 8.75654 | 2681 ft | 188 kts | 249° |
| 2026-05-05 06:17 | 50.07610 | 8.73786 | 2413 ft | 180 kts | 249° |
| 2026-05-05 06:18 | 50.07180 | 8.71982 | 2168 ft | 176 kts | 249° |
| 2026-05-05 06:18 | 50.06754 | 8.70191 | 1947 ft | 176 kts | 249° |
| 2026-05-05 06:18 | 50.06340 | 8.68451 | 1713 ft | 166 kts | 250° |
| 2026-05-05 06:18 | 50.05955 | 8.66836 | 1492 ft | 154 kts | 250° |
| 2026-05-05 06:19 | 50.05583 | 8.65274 | 1297 ft | 153 kts | 250° |
| 2026-05-05 06:19 | 50.05218 | 8.63742 | 1084 ft | 149 kts | 250° |
| 2026-05-05 06:19 | 50.04863 | 8.62249 | 892 ft | 149 kts | 250° |
| 2026-05-05 06:19 | 50.04503 | 8.60743 | 693 ft | 149 kts | 250° |
| 2026-05-05 06:20 | 50.04141 | 8.59225 | 499 ft | 149 kts | 250° |
| 2026-05-05 06:20 | 50.03784 | 8.57720 | 371 ft | 143 kts | 249° |
| 2026-05-05 06:20 | 50.03480 | 8.56454 | 357 ft | 99 kts | 249° |
| 2026-05-05 06:20 | 50.03305 | 8.55718 | 354 ft | 46 kts | 249° |
| 2026-05-05 06:21 | 50.03202 | 8.55289 | 357 ft | 45 kts | 249° |
| 2026-05-05 06:21 | 50.03112 | 8.54915 | 357 ft | 27 kts | 250° |
| 2026-05-05 06:21 | 50.03069 | 8.54730 | 350 ft | 14 kts | 249° |
| 2026-05-05 06:21 | 50.03017 | 8.54666 | 348 ft | 10 kts | 185° |
| 2026-05-05 06:22 | 50.02953 | 8.54701 | 349 ft | 10 kts | 137° |
| 2026-05-05 06:22 | 50.02915 | 8.54811 | 355 ft | 12 kts | 104° |
| 2026-05-05 06:22 | 50.02926 | 8.54937 | 350 ft | 12 kts | 71° |
| 2026-05-05 06:22 | 50.02955 | 8.55058 | 353 ft | 12 kts | 70° |
| 2026-05-05 06:23 | 50.02983 | 8.55179 | 349 ft | 12 kts | 69° |
| 2026-05-05 06:23 | 50.03012 | 8.55298 | 357 ft | 12 kts | 69° |
| 2026-05-05 06:23 | 50.03041 | 8.55418 | 351 ft | 12 kts | 70° |
| 2026-05-05 06:23 | 50.03070 | 8.55539 | 353 ft | 12 kts | 70° |
| 2026-05-05 06:24 | 50.03099 | 8.55660 | 353 ft | 12 kts | 70° |
| 2026-05-05 06:24 | 50.03127 | 8.55780 | 354 ft | 12 kts | 69° |
| 2026-05-05 06:24 | 50.03156 | 8.55901 | 355 ft | 12 kts | 69° |
| 2026-05-05 06:24 | 50.03185 | 8.56021 | 359 ft | 12 kts | 69° |
| 2026-05-05 06:25 | 50.03214 | 8.56142 | 356 ft | 12 kts | 69° |
| 2026-05-05 06:25 | 50.03243 | 8.56263 | 361 ft | 12 kts | 70° |
| 2026-05-05 06:25 | 50.03272 | 8.56383 | 355 ft | 12 kts | 70° |
| 2026-05-05 06:25 | 50.03301 | 8.56504 | 358 ft | 12 kts | 69° |
| 2026-05-05 06:26 | 50.03323 | 8.56598 | 360 ft | 5 kts | 70° |
| 2026-05-05 06:26 | 50.03330 | 8.56626 | 361 ft | 0 kts | 70° |
| 2026-05-05 06:27 | 50.03336 | 8.56654 | 361 ft | 10 kts | 70° |
| 2026-05-05 06:27 | 50.03378 | 8.56828 | 364 ft | 20 kts | 70° |
| 2026-05-05 06:28 | 50.03425 | 8.57029 | 363 ft | 20 kts | 70° |
| 2026-05-05 06:28 | 50.03474 | 8.57229 | 362 ft | 20 kts | 70° |
| 2026-05-05 06:28 | 50.03521 | 8.57430 | 368 ft | 20 kts | 69° |
| 2026-05-05 06:28 | 50.03569 | 8.57627 | 367 ft | 20 kts | 69° |
| 2026-05-05 06:29 | 50.03616 | 8.57828 | 368 ft | 20 kts | 70° |
| 2026-05-05 06:29 | 50.03664 | 8.58029 | 370 ft | 20 kts | 69° |
| 2026-05-05 06:29 | 50.03713 | 8.58231 | 370 ft | 20 kts | 69° |
| 2026-05-05 06:29 | 50.03762 | 8.58438 | 370 ft | 21 kts | 70° |
| 2026-05-05 06:30 | 50.03814 | 8.58655 | 372 ft | 21 kts | 69° |
| 2026-05-05 06:30 | 50.03866 | 8.58872 | 376 ft | 21 kts | 69° |
| 2026-05-05 06:30 | 50.03915 | 8.59075 | 376 ft | 17 kts | 69° |
| 2026-05-05 06:30 | 50.03950 | 8.59220 | 375 ft | 14 kts | 68° |
| 2026-05-05 06:31 | 50.04006 | 8.59342 | 377 ft | 14 kts | 44° |
| 2026-05-05 06:31 | 50.04088 | 8.59424 | 378 ft | 15 kts | 24° |
| 2026-05-05 06:31 | 50.04203 | 8.59481 | 380 ft | 19 kts | 10° |
| 2026-05-05 06:31 | 50.04338 | 8.59481 | 381 ft | 19 kts | 358° |
| 2026-05-05 06:32 | 50.04473 | 8.59473 | 380 ft | 19 kts | 358° |
| 2026-05-05 06:32 | 50.04608 | 8.59464 | 377 ft | 19 kts | 356° |
| 2026-05-05 06:32 | 50.04716 | 8.59432 | 377 ft | 12 kts | 342° |
| 2026-05-05 06:32 | 50.04792 | 8.59389 | 377 ft | 12 kts | 338° |
| 2026-05-05 06:33 | 50.04842 | 8.59301 | 378 ft | 12 kts | 279° |
| 2026-05-05 06:33 | 50.04825 | 8.59180 | 377 ft | 12 kts | 250° |
| 2026-05-05 06:33 | 50.04797 | 8.59062 | 376 ft | 12 kts | 250° |
| 2026-05-05 06:33 | 50.04769 | 8.58944 | 377 ft | 12 kts | 249° |
| 2026-05-05 06:34 | 50.04740 | 8.58824 | 377 ft | 13 kts | 249° |
| 2026-05-05 06:34 | 50.04702 | 8.58681 | 376 ft | 16 kts | 247° |
| 2026-05-05 06:34 | 50.04662 | 8.58524 | 377 ft | 16 kts | 250° |
| 2026-05-05 06:34 | 50.04624 | 8.58361 | 376 ft | 17 kts | 250° |
| 2026-05-05 06:35 | 50.04584 | 8.58191 | 375 ft | 17 kts | 249° |
| 2026-05-05 06:35 | 50.04543 | 8.58021 | 373 ft | 17 kts | 250° |
| 2026-05-05 06:35 | 50.04503 | 8.57852 | 373 ft | 17 kts | 249° |
| 2026-05-05 06:35 | 50.04475 | 8.57737 | 373 ft | 8 kts | 249° |
| 2026-05-05 06:36 | 50.04464 | 8.57640 | 369 ft | 11 kts | 278° |
| 2026-05-05 06:36 | 50.04501 | 8.57561 | 372 ft | 5 kts | 323° |
| 2026-05-05 06:36 | 50.04514 | 8.57547 | 370 ft | 2 kts | 328° |
| 2026-05-05 06:36 | 50.04522 | 8.57542 | 370 ft | 0 kts | 335° |
| 2026-05-05 06:37 | 50.04530 | 8.57536 | 370 ft | 4 kts | 335° |
| 2026-05-05 06:37 | 50.04569 | 8.57511 | 368 ft | 8 kts | 339° |
| 2026-05-05 06:38 | 50.04619 | 8.57476 | 368 ft | 9 kts | 327° |
| 2026-05-05 06:38 | 50.04665 | 8.57414 | 365 ft | 9 kts | 316° |
| 2026-05-05 06:38 | 50.04687 | 8.57381 | 368 ft | 2 kts | 316° |
| 2026-05-05 06:38 | 50.04696 | 8.57365 | 368 ft | 2 kts | 308° |
| 2026-05-05 06:39 | 50.04705 | 8.57335 | 363 ft | 4 kts | 290° |
| 2026-05-05 06:39 | 50.04709 | 8.57301 | 361 ft | 2 kts | 277° |
| 2026-05-05 06:39 | 50.04710 | 8.57292 | 361 ft | 0 kts | 277° |